Time;durP1;ratioP1;P1;durP2;ratioP2;P2;SDS_P1;SDS_P2;PMS_P1;PMS_P2;Temp;Humidity;BMP_temperature;BMP_pressure;BME280_temperature;BME280_humidity;BME280_pressure;Samples;Min_cycle;Max_cycle;Signal;HPM_P1;HPM_P2
2023/06/23 00:00:12;;;;;;;8.20;5.63;;;;;;;19.11;100.00;100273.28;4930812;29;20230;-67
2023/06/23 00:02:42;;;;;;;7.57;5.57;;;;;;;19.13;100.00;100283.97;4927118;29;20286;-66
2023/06/23 00:05:08;;;;;;;6.80;4.73;;;;;;;19.19;100.00;100295.44;4924333;29;20206;-66
2023/06/23 00:07:35;;;;;;;6.80;5.60;;;;;;;19.12;100.00;100312.63;4931132;29;20205;-68
2023/06/23 00:10:06;;;;;;;9.27;5.90;;;;;;;19.17;100.00;100312.50;4913430;29;20638;-66
2023/06/23 00:12:34;;;;;;;6.80;5.47;;;;;;;19.15;100.00;100296.44;4930535;29;20206;-66
2023/06/23 00:15:01;;;;;;;8.57;5.37;;;;;;;19.12;100.00;100291.13;4931492;29;20207;-66
2023/06/23 00:17:28;;;;;;;8.50;5.47;;;;;;;19.17;100.00;100307.13;4932437;29;20204;-66
2023/06/23 00:19:54;;;;;;;7.80;5.27;;;;;;;19.17;100.00;100299.09;4926336;29;20317;-66
2023/06/23 00:22:20;;;;;;;8.07;5.37;;;;;;;19.19;100.00;100300.81;4930335;29;20198;-69
2023/06/23 00:24:47;;;;;;;8.30;5.50;;;;;;;19.15;100.00;100309.84;4928410;29;20242;-66
2023/06/23 00:27:13;;;;;;;7.70;5.40;;;;;;;19.17;100.00;100302.66;4928299;29;20213;-68
2023/06/23 00:29:40;;;;;;;7.17;5.67;;;;;;;19.18;100.00;100308.91;4930912;29;20250;-68
2023/06/23 00:32:07;;;;;;;9.30;5.77;;;;;;;19.16;100.00;100322.38;4929094;29;20583;-67
2023/06/23 00:34:34;;;;;;;6.63;5.07;;;;;;;19.23;100.00;100310.59;4926801;29;20697;-67
2023/06/23 00:37:00;;;;;;;9.87;5.80;;;;;;;19.23;100.00;100324.03;4927655;29;20295;-69
2023/06/23 00:39:26;;;;;;;7.43;5.20;;;;;;;19.27;100.00;100332.88;4928396;29;20601;-67
2023/06/23 00:41:53;;;;;;;7.67;5.40;;;;;;;19.23;100.00;100326.69;4930707;29;20663;-66
2023/06/23 00:44:20;;;;;;;6.77;5.00;;;;;;;19.22;100.00;100332.13;4925979;29;20319;-69
2023/06/23 00:46:47;;;;;;;8.03;5.90;;;;;;;19.26;100.00;100348.13;4931236;29;20201;-67
2023/06/23 00:49:14;;;;;;;7.53;5.60;;;;;;;19.27;100.00;100349.00;4933404;29;20218;-67
2023/06/23 00:51:41;;;;;;;9.63;5.50;;;;;;;19.25;100.00;100351.72;4929023;29;20689;-71
2023/06/23 00:54:08;;;;;;;7.37;5.70;;;;;;;19.19;100.00;100354.50;4927803;29;20203;-67
2023/06/23 00:56:35;;;;;;;7.40;5.80;;;;;;;19.09;100.00;100348.47;4927400;29;20211;-69
2023/06/23 00:59:02;;;;;;;7.37;5.83;;;;;;;19.11;100.00;100348.44;4930305;29;20222;-67
2023/06/23 01:01:31;;;;;;;7.17;5.70;;;;;;;19.13;100.00;100360.03;4913035;29;20243;-67
2023/06/23 01:03:59;;;;;;;9.10;6.10;;;;;;;19.10;100.00;100366.34;4930354;29;20216;-67
2023/06/23 01:06:37;;;;;;;8.87;5.83;;;;;;;19.07;100.00;100362.84;4929977;29;20210;-68
2023/06/23 01:09:16;;;;;;;6.73;5.33;;;;;;;18.97;100.00;100356.81;4934728;29;20681;-67
2023/06/23 01:12:07;;;;;;;10.10;5.73;;;;;;;18.99;100.00;100359.44;4930801;29;20679;-68
2023/06/23 01:14:45;;;;;;;8.20;5.50;;;;;;;18.99;100.00;100362.13;4905106;29;20202;-66
2023/06/23 01:17:20;;;;;;;7.90;5.83;;;;;;;18.91;100.00;100359.63;4930016;29;20203;-66
2023/06/23 01:19:54;;;;;;;6.87;5.70;;;;;;;18.83;100.00;100364.28;4931566;29;20219;-68
2023/06/23 01:22:33;;;;;;;7.90;5.60;;;;;;;18.84;100.00;100379.47;4927960;29;20206;-67
2023/06/23 01:25:26;;;;;;;8.80;5.80;;;;;;;18.82;100.00;100377.72;4932970;29;20231;-66
2023/06/23 01:28:11;;;;;;;9.23;6.27;;;;;;;18.83;100.00;100384.84;4930327;29;20285;-67
2023/06/23 01:30:42;;;;;;;7.90;6.40;;;;;;;18.87;100.00;100386.56;4931863;29;20205;-67
2023/06/23 01:33:17;;;;;;;7.90;5.97;;;;;;;18.90;100.00;100386.50;4934819;29;20233;-66
2023/06/23 01:35:47;;;;;;;7.13;5.77;;;;;;;18.89;100.00;100395.47;4934321;29;20194;-69
2023/06/23 01:38:24;;;;;;;9.20;6.07;;;;;;;18.92;100.00;100398.97;4933590;29;20687;-67
2023/06/23 01:40:54;;;;;;;7.53;6.23;;;;;;;18.90;100.00;100399.91;4927294;29;20249;-67
2023/06/23 01:43:29;;;;;;;7.67;6.20;;;;;;;18.97;100.00;100402.44;4932477;29;20742;-67
2023/06/23 01:46:03;;;;;;;8.53;6.30;;;;;;;18.94;100.00;100404.28;4931153;29;20199;-67
2023/06/23 01:48:32;;;;;;;10.23;6.90;;;;;;;18.96;100.00;100422.13;4933798;29;20711;-69
2023/06/23 01:51:02;;;;;;;7.00;5.97;;;;;;;18.96;100.00;100407.84;4935098;29;20228;-66
2023/06/23 01:53:31;;;;;;;8.80;6.47;;;;;;;19.00;100.00;100402.38;4931757;29;20583;-68
2023/06/23 01:56:04;;;;;;;11.67;6.30;;;;;;;19.07;100.00;100428.16;4929824;29;20231;-65
2023/06/23 01:58:33;;;;;;;8.33;6.67;;;;;;;19.03;100.00;100417.53;4933914;29;20225;-66
2023/06/23 02:01:00;;;;;;;10.30;6.80;;;;;;;19.08;100.00;100421.88;4932578;29;20215;-66
2023/06/23 02:03:29;;;;;;;8.33;6.30;;;;;;;19.09;100.00;100430.81;4932321;29;20203;-68
2023/06/23 02:05:57;;;;;;;9.13;6.80;;;;;;;19.09;100.00;100437.06;4933316;29;20248;-67
2023/06/23 02:08:26;;;;;;;9.73;6.60;;;;;;;19.10;100.00;100443.31;4941341;23;20223;-64
2023/06/23 02:10:55;;;;;;;11.07;6.50;;;;;;;19.13;100.00;100439.69;4950540;29;20687;-66
2023/06/23 02:13:25;;;;;;;8.97;6.60;;;;;;;19.12;100.00;100444.16;4950181;28;20206;-65
2023/06/23 02:15:53;;;;;;;9.20;6.90;;;;;;;19.16;100.00;100450.34;4953137;29;20285;-67
2023/06/23 02:18:21;;;;;;;9.03;6.47;;;;;;;19.17;100.00;100452.13;4953045;29;20213;-66
2023/06/23 02:20:49;;;;;;;8.53;6.87;;;;;;;19.18;100.00;100465.50;4933992;29;20702;-65
2023/06/23 02:23:17;;;;;;;9.33;6.77;;;;;;;19.15;100.00;100468.25;4929993;29;20217;-66
2023/06/23 02:25:45;;;;;;;9.00;6.33;;;;;;;19.13;100.00;100470.09;4932835;29;20717;-66
2023/06/23 02:28:12;;;;;;;8.17;7.20;;;;;;;19.14;99.83;100462.94;4932806;29;20210;-66
2023/06/23 02:30:40;;;;;;;8.70;6.63;;;;;;;19.16;99.88;100478.09;4933302;29;20222;-66
2023/06/23 02:33:06;;;;;;;6.73;5.87;;;;;;;19.12;100.00;100472.81;4931583;29;20298;-66
2023/06/23 02:35:33;;;;;;;10.57;6.77;;;;;;;19.13;99.87;100474.59;4929881;29;20233;-67
2023/06/23 02:38:03;;;;;;;8.70;6.80;;;;;;;19.09;99.37;100474.66;4932437;29;20687;-65
2023/06/23 02:40:33;;;;;;;9.50;6.63;;;;;;;19.10;99.81;100472.84;4931765;29;20257;-66
2023/06/23 02:43:18;;;;;;;8.30;6.60;;;;;;;19.13;98.95;100483.53;4929020;29;20203;-65
2023/06/23 02:45:53;;;;;;;9.70;6.97;;;;;;;19.15;98.47;100484.38;4932786;29;20249;-67
2023/06/23 02:48:26;;;;;;;9.20;6.50;;;;;;;19.14;98.75;100485.28;4929921;29;20261;-66
2023/06/23 02:50:56;;;;;;;8.60;6.57;;;;;;;19.15;99.02;100497.78;4928588;29;20278;-65
2023/06/23 02:53:25;;;;;;;10.97;6.70;;;;;;;19.12;99.40;100499.66;4933528;29;20199;-65
2023/06/23 02:56:04;;;;;;;9.57;6.70;;;;;;;19.11;99.56;100525.63;4915601;29;20235;-66
2023/06/23 02:58:32;;;;;;;9.40;6.97;;;;;;;19.10;100.00;100526.53;4931224;29;20238;-65
2023/06/23 03:01:04;;;;;;;9.63;6.93;;;;;;;19.08;100.00;100529.25;4933043;29;20221;-65
2023/06/23 03:03:34;;;;;;;9.77;6.77;;;;;;;19.05;99.44;100542.75;4932390;29;20198;-65
2023/06/23 03:06:01;;;;;;;8.87;6.90;;;;;;;19.07;99.84;100540.03;4931083;29;20250;-66
2023/06/23 03:08:28;;;;;;;9.30;6.83;;;;;;;19.04;99.16;100549.03;4931388;29;20225;-65
2023/06/23 03:10:54;;;;;;;11.13;7.40;;;;;;;19.08;98.98;100560.59;4933372;29;20210;-66
2023/06/23 03:13:21;;;;;;;9.40;7.20;;;;;;;19.05;98.81;100552.59;4932320;29;20250;-66
2023/06/23 03:15:54;;;;;;;8.17;6.83;;;;;;;19.05;99.13;100560.66;4930509;29;20203;-66
2023/06/23 03:18:25;;;;;;;12.80;6.70;;;;;;;19.04;98.68;100556.19;4930606;29;20570;-65
2023/06/23 03:20:56;;;;;;;8.47;6.30;;;;;;;19.02;99.65;100563.38;4933018;29;20305;-66
2023/06/23 03:23:25;;;;;;;8.40;6.30;;;;;;;18.99;100.00;100555.41;4931731;29;20230;-67
2023/06/23 03:25:52;;;;;;;9.10;6.83;;;;;;;18.96;100.00;100555.44;4930107;29;20209;-66
2023/06/23 03:28:25;;;;;;;10.83;6.43;;;;;;;18.97;100.00;100559.91;4915406;29;20202;-65
2023/06/23 03:31:06;;;;;;;8.87;6.40;;;;;;;18.96;100.00;100569.75;4930425;29;20274;-66
2023/06/23 03:33:36;;;;;;;9.60;7.17;;;;;;;18.87;100.00;100569.03;4926903;29;20214;-65
2023/06/23 03:36:13;;;;;;;10.77;7.17;;;;;;;18.70;100.00;100564.84;4930355;29;20227;-67
2023/06/23 03:39:03;;;;;;;8.73;7.50;;;;;;;18.45;100.00;100558.97;4930474;29;20209;-65
2023/06/23 03:41:32;;;;;;;11.67;8.47;;;;;;;18.28;100.00;100571.75;4930346;29;20198;-67
2023/06/23 03:44:23;;;;;;;11.00;8.83;;;;;;;18.09;100.00;100570.25;4926139;29;20297;-66
2023/06/23 03:46:54;;;;;;;14.33;9.47;;;;;;;17.90;100.00;100563.38;4931954;29;20199;-66
2023/06/23 03:49:26;;;;;;;13.77;10.00;;;;;;;17.74;100.00;100558.22;4930538;29;20586;-66
2023/06/23 03:51:57;;;;;;;12.03;9.27;;;;;;;17.72;100.00;100569.88;4931191;29;20286;-65
2023/06/23 03:54:25;;;;;;;13.03;9.23;;;;;;;17.70;100.00;100563.66;4932016;29;20245;-66
2023/06/23 03:56:54;;;;;;;13.03;9.37;;;;;;;17.72;100.00;100577.91;4932008;29;20298;-66
2023/06/23 03:59:23;;;;;;;11.90;9.47;;;;;;;17.73;100.00;100577.00;4930654;28;20597;-65
2023/06/23 04:01:51;;;;;;;12.83;9.00;;;;;;;17.76;100.00;100563.56;4928953;29;20290;-66
2023/06/23 04:04:21;;;;;;;11.57;8.03;;;;;;;17.75;100.00;100577.88;4931206;29;20207;-65
2023/06/23 04:06:49;;;;;;;10.20;7.17;;;;;;;17.76;100.00;100569.81;4931151;29;20199;-66
2023/06/23 04:09:21;;;;;;;10.57;6.83;;;;;;;17.76;100.00;100582.31;4931939;29;20333;-66
2023/06/23 04:11:50;;;;;;;11.63;7.83;;;;;;;17.71;100.00;100585.06;4931573;29;20207;-68
2023/06/23 04:14:19;;;;;;;9.20;6.80;;;;;;;17.67;100.00;100590.47;4931557;29;20678;-67
2023/06/23 04:16:48;;;;;;;8.50;6.20;;;;;;;17.71;100.00;100610.97;4930327;29;20194;-65
2023/06/23 04:19:15;;;;;;;8.40;6.43;;;;;;;17.66;100.00;100612.78;4932156;29;20711;-65
2023/06/23 04:21:42;;;;;;;8.13;6.20;;;;;;;17.71;100.00;100622.56;4931323;29;20199;-67
2023/06/23 04:24:10;;;;;;;8.50;6.70;;;;;;;17.72;100.00;100636.84;4929935;29;20298;-65
2023/06/23 04:26:39;;;;;;;8.13;6.53;;;;;;;17.73;100.00;100643.97;4931217;29;20202;-65
2023/06/23 04:29:09;;;;;;;8.67;6.87;;;;;;;17.67;100.00;100644.06;4931433;29;20222;-68
2023/06/23 04:31:38;;;;;;;11.17;6.63;;;;;;;17.65;100.00;100641.34;4928517;29;20210;-65
2023/06/23 04:34:05;;;;;;;8.37;6.17;;;;;;;17.72;100.00;100655.59;4926661;29;20299;-65
2023/06/23 04:36:42;;;;;;;6.97;5.77;;;;;;;17.73;100.00;100652.91;4928783;29;20282;-66
2023/06/23 04:39:17;;;;;;;6.47;5.60;;;;;;;17.71;100.00;100664.53;4928321;29;20223;-67
2023/06/23 04:41:47;;;;;;;7.60;5.60;;;;;;;17.72;100.00;100667.19;4929695;29;20198;-64
2023/06/23 04:44:18;;;;;;;7.27;5.67;;;;;;;17.74;100.00;100676.09;4927413;29;20207;-66
2023/06/23 04:46:46;;;;;;;7.83;5.80;;;;;;;17.74;100.00;100673.41;4928983;29;20202;-66
2023/06/23 04:49:18;;;;;;;8.93;5.33;;;;;;;17.71;100.00;100675.25;4929093;29;20227;-66
2023/06/23 04:51:46;;;;;;;8.43;5.80;;;;;;;17.76;100.00;100670.72;4929688;29;20206;-66
2023/06/23 04:54:22;;;;;;;7.63;5.60;;;;;;;17.82;100.00;100671.53;4925255;29;20289;-66
2023/06/23 04:56:51;;;;;;;7.33;5.40;;;;;;;17.86;100.00;100661.66;4928017;29;20281;-66
2023/06/23 04:59:20;;;;;;;9.83;5.43;;;;;;;17.98;100.00;100674.91;4935015;29;20225;-65
2023/06/23 05:01:47;;;;;;;8.37;5.73;;;;;;;18.03;100.00;100677.56;4934054;29;20592;-66
2023/06/23 05:04:15;;;;;;;7.23;5.20;;;;;;;18.11;100.00;100689.94;4934209;29;20215;-67
2023/06/23 05:06:43;;;;;;;7.90;6.00;;;;;;;18.17;100.00;100692.56;4933284;29;20230;-66
2023/06/23 05:09:12;;;;;;;7.70;6.00;;;;;;;18.25;100.00;100695.13;4930160;29;20588;-66
2023/06/23 05:11:41;;;;;;;6.00;5.40;;;;;;;18.34;100.00;100697.69;4934149;29;20199;-66
2023/06/23 05:14:08;;;;;;;6.97;5.97;;;;;;;18.41;100.00;100698.47;4933974;29;20644;-66
2023/06/23 05:16:37;;;;;;;7.20;6.10;;;;;;;18.37;100.00;100700.31;4929730;29;20206;-66
2023/06/23 05:19:08;;;;;;;8.00;6.17;;;;;;;18.51;100.00;100702.84;4935106;29;20227;-66
2023/06/23 05:21:35;;;;;;;7.10;5.80;;;;;;;18.53;100.00;100695.66;4925723;29;20234;-66
2023/06/23 05:24:04;;;;;;;7.83;6.33;;;;;;;18.52;100.00;100698.34;4930232;29;20199;-66
2023/06/23 05:26:33;;;;;;;8.27;6.43;;;;;;;18.73;99.64;100708.78;4931581;29;20199;-66
2023/06/23 05:29:06;;;;;;;12.00;6.97;;;;;;;18.83;98.59;100713.13;4933026;29;20749;-66
2023/06/23 05:31:36;;;;;;;8.90;6.10;;;;;;;18.70;98.41;100719.56;4932503;29;20274;-66
2023/06/23 05:34:06;;;;;;;11.13;7.20;;;;;;;18.70;97.85;100722.25;4930173;29;20207;-66
2023/06/23 05:36:35;;;;;;;8.20;6.60;;;;;;;18.85;97.63;100723.84;4933920;29;20202;-66
2023/06/23 05:39:05;;;;;;;8.70;6.53;;;;;;;19.05;97.69;100727.97;4933334;29;20231;-67
2023/06/23 05:41:32;;;;;;;8.30;6.40;;;;;;;19.03;96.41;100728.91;4934529;29;20310;-66
2023/06/23 05:43:58;;;;;;;9.90;6.53;;;;;;;19.00;96.82;100750.44;4931312;29;20201;-66
2023/06/23 05:46:28;;;;;;;10.93;7.00;;;;;;;18.88;96.42;100761.38;4934484;29;20214;-66
2023/06/23 05:49:00;;;;;;;8.57;7.30;;;;;;;18.95;96.13;100753.19;4932799;29;20219;-67
2023/06/23 05:51:31;;;;;;;8.20;6.60;;;;;;;18.88;97.41;100762.25;4932142;29;20199;-67
2023/06/23 05:54:00;;;;;;;9.80;7.40;;;;;;;18.86;96.38;100769.44;4932082;29;20199;-66
2023/06/23 05:56:44;;;;;;;11.40;7.50;;;;;;;18.83;96.63;100771.28;4933853;29;20727;-66
2023/06/23 05:59:43;;;;;;;10.00;7.53;;;;;;;18.96;95.77;100779.13;4920791;29;20237;-66
2023/06/23 06:02:18;;;;;;;10.00;7.40;;;;;;;19.17;95.23;100791.31;4925905;29;20747;-65
2023/06/23 06:04:49;;;;;;;10.60;7.23;;;;;;;19.44;93.67;100776.56;4930874;29;20709;-68
2023/06/23 06:07:18;;;;;;;8.13;7.00;;;;;;;19.74;91.81;100780.56;4929742;29;20199;-70
2023/06/23 06:09:46;;;;;;;10.47;7.07;;;;;;;19.88;91.53;100777.63;4929462;29;20246;-68
2023/06/23 06:12:14;;;;;;;9.33;7.27;;;;;;;19.98;88.96;100774.72;4930185;29;20203;-68
2023/06/23 06:14:43;;;;;;;8.73;6.80;;;;;;;19.91;87.72;100789.22;4932365;29;20222;-69
2023/06/23 06:17:11;;;;;;;8.50;6.57;;;;;;;20.12;87.52;100797.81;4921427;29;20592;-67
2023/06/23 06:19:40;;;;;;;8.87;6.77;;;;;;;20.11;88.22;100796.03;4912229;29;20711;-69
2023/06/23 06:22:09;;;;;;;8.73;6.30;;;;;;;20.14;89.11;100801.34;4916256;29;20743;-68
2023/06/23 06:24:38;;;;;;;8.33;6.70;;;;;;;19.90;89.65;100808.94;4933306;29;20209;-67
2023/06/23 06:27:07;;;;;;;10.43;6.53;;;;;;;20.07;89.13;100819.41;4931455;29;20274;-64
2023/06/23 06:29:36;;;;;;;8.73;6.47;;;;;;;20.31;88.42;100821.59;4915825;29;20741;-65
2023/06/23 06:32:07;;;;;;;8.77;6.75;;;;;;;20.39;86.63;100818.75;4934429;29;20575;-63
2023/06/23 06:34:35;;;;;;;10.15;6.85;;;;;;;20.43;86.47;100820.53;4934416;29;20203;-65
2023/06/23 06:37:02;;;;;;;9.15;7.45;;;;;;;20.26;86.76;100820.81;4929859;29;20195;-66
2023/06/23 06:39:30;;;;;;;7.53;6.67;;;;;;;20.44;86.32;100816.03;4933472;29;20226;-65
2023/06/23 06:41:57;;;;;;;8.47;6.67;;;;;;;20.56;86.26;100819.34;4934423;29;20215;-65
2023/06/23 06:44:25;;;;;;;8.60;7.20;;;;;;;20.32;86.13;100827.88;4934186;29;20750;-65
2023/06/23 06:46:52;;;;;;;9.38;7.40;;;;;;;20.02;87.66;100827.56;4932140;29;20201;-65
2023/06/23 06:49:21;;;;;;;8.30;7.20;;;;;;;20.11;87.98;100826.50;4919391;29;20229;-66
2023/06/23 06:51:49;;;;;;;12.65;7.75;;;;;;;20.07;87.01;100843.59;4933391;29;20197;-65
2023/06/23 06:54:16;;;;;;;10.13;7.60;;;;;;;20.09;86.58;100846.28;4930876;29;20651;-65
2023/06/23 06:56:45;;;;;;;12.30;7.90;;;;;;;20.16;85.97;100853.31;4934235;29;20203;-66
2023/06/23 06:59:12;;;;;;;10.37;7.63;;;;;;;20.31;85.78;100851.19;4933286;29;20223;-65
2023/06/23 07:01:40;;;;;;;9.50;7.22;;;;;;;20.49;84.02;100857.19;4933523;29;20316;-66
2023/06/23 07:04:07;;;;;;;9.70;7.40;;;;;;;20.39;83.64;100859.13;4929572;29;20234;-65
2023/06/23 07:06:36;;;;;;;10.10;7.18;;;;;;;20.52;82.98;100858.03;4932739;29;20278;-65
2023/06/23 07:09:03;;;;;;;8.80;7.07;;;;;;;20.80;82.09;100873.59;4933986;29;20254;-67
2023/06/23 07:11:31;;;;;;;10.30;7.60;;;;;;;21.09;80.69;100878.34;4934047;29;20195;-66
2023/06/23 07:13:59;;;;;;;11.80;7.63;;;;;;;21.63;78.93;100886.16;4930154;29;20657;-66
2023/06/23 07:16:30;;;;;;;10.48;7.85;;;;;;;21.81;77.16;100888.38;4933277;29;20912;-65
2023/06/23 07:18:57;;;;;;;12.25;7.75;;;;;;;21.78;77.03;100894.75;4933800;29;20219;-66
2023/06/23 07:21:23;;;;;;;9.52;7.63;;;;;;;22.50;74.77;100893.78;4932325;29;20240;-67
2023/06/23 07:23:50;;;;;;;12.98;7.05;;;;;;;23.17;71.45;100901.78;4933975;29;20203;-63
2023/06/23 07:26:16;;;;;;;11.30;7.20;;;;;;;23.29;71.11;100901.41;4933728;29;20199;-65
2023/06/23 07:28:43;;;;;;;9.20;6.82;;;;;;;23.35;70.49;100900.34;4933092;29;20223;-65
2023/06/23 07:31:09;;;;;;;8.82;7.45;;;;;;;24.03;67.78;100902.69;4932011;29;20206;-65
2023/06/23 07:33:36;;;;;;;9.38;6.68;;;;;;;24.64;64.97;100905.97;4933161;29;20293;-66
2023/06/23 07:36:02;;;;;;;10.68;6.90;;;;;;;24.29;65.44;100912.63;4933512;29;20199;-67
2023/06/23 07:38:29;;;;;;;8.00;6.43;;;;;;;23.44;68.17;100917.16;4932071;29;20214;-65
2023/06/23 07:40:55;;;;;;;7.82;6.43;;;;;;;23.74;66.89;100920.75;4930310;29;20229;-66
2023/06/23 07:43:22;;;;;;;9.32;6.90;;;;;;;22.98;68.73;100930.28;4932323;29;20210;-65
2023/06/23 07:45:48;;;;;;;9.43;6.68;;;;;;;22.93;69.51;100930.41;4933300;29;20682;-64
2023/06/23 07:48:14;;;;;;;8.88;6.68;;;;;;;23.15;67.99;100925.25;4931789;29;20636;-65
2023/06/23 07:50:43;;;;;;;8.73;6.97;;;;;;;23.63;67.55;100935.56;4933411;29;20307;-65
2023/06/23 07:53:09;;;;;;;8.13;6.65;;;;;;;23.12;67.28;100937.03;4933068;29;20238;-64
2023/06/23 07:55:36;;;;;;;10.40;6.68;;;;;;;22.59;69.79;100940.34;4930666;29;20778;-65
2023/06/23 07:58:02;;;;;;;9.20;6.78;;;;;;;23.16;68.67;100939.66;4932230;29;20209;-67
2023/06/23 08:00:29;;;;;;;8.50;6.80;;;;;;;24.33;64.08;100933.22;4932488;29;20221;-66
2023/06/23 08:02:55;;;;;;;9.15;6.97;;;;;;;24.04;63.85;100940.50;4932821;29;20203;-65
2023/06/23 08:05:23;;;;;;;9.27;6.88;;;;;;;23.26;67.50;100965.50;4931172;29;20290;-65
2023/06/23 08:07:50;;;;;;;7.95;6.53;;;;;;;23.60;64.49;100955.44;4933129;29;20253;-65
2023/06/23 08:10:17;;;;;;;9.27;7.07;;;;;;;22.25;68.66;100968.22;4932387;29;20235;-67
2023/06/23 08:12:43;;;;;;;9.25;7.00;;;;;;;24.11;63.56;100967.38;4928236;29;20229;-67
2023/06/23 08:15:10;;;;;;;8.93;7.00;;;;;;;23.95;61.49;100943.50;4930815;29;20392;-65
2023/06/23 08:17:37;;;;;;;10.27;7.00;;;;;;;23.43;64.01;100965.88;4932185;29;20293;-67
2023/06/23 08:20:04;;;;;;;8.82;6.65;;;;;;;23.40;65.09;100974.06;4932939;29;20305;-67
2023/06/23 08:22:30;;;;;;;9.82;7.03;;;;;;;22.70;66.96;100992.25;4931020;29;20230;-68
2023/06/23 08:24:56;;;;;;;8.27;6.80;;;;;;;22.66;68.71;100988.75;4931084;29;20210;-66
2023/06/23 08:27:23;;;;;;;11.30;6.50;;;;;;;22.51;68.59;100999.97;4931478;29;20225;-67
2023/06/23 08:29:49;;;;;;;9.32;6.70;;;;;;;22.48;67.18;101009.03;4932624;29;20214;-66
2023/06/23 08:32:16;;;;;;;8.85;6.72;;;;;;;22.80;66.72;101000.09;4925769;29;20247;-67
2023/06/23 08:34:42;;;;;;;8.00;6.35;;;;;;;23.65;63.13;100999.47;4932881;29;20221;-67
2023/06/23 08:37:09;;;;;;;8.50;6.40;;;;;;;23.34;65.44;101001.28;4932944;29;20202;-65
2023/06/23 08:39:35;;;;;;;7.65;6.30;;;;;;;23.66;62.97;100995.84;4932209;29;20249;-66
2023/06/23 08:42:02;;;;;;;8.23;6.43;;;;;;;23.27;66.87;100995.19;4925308;29;20315;-67
2023/06/23 08:44:31;;;;;;;10.00;6.82;;;;;;;23.11;68.01;101008.22;4914479;29;20210;-67
2023/06/23 08:46:58;;;;;;;8.93;6.80;;;;;;;;;;4927950;29;20226;-67
2023/06/23 08:49:38;;;;;;;11.95;6.97;;;;;;;23.05;67.05;101007.53;4934214;29;20218;-67
2023/06/23 08:52:05;;;;;;;7.57;6.78;;;;;;;23.27;66.19;101018.63;4931872;29;20211;-66
2023/06/23 08:54:32;;;;;;;9.43;7.22;;;;;;;23.19;67.22;101009.81;4920863;29;20199;-66
2023/06/23 08:56:58;;;;;;;7.85;6.95;;;;;;;23.67;65.04;101008.44;4920952;29;20588;-70
2023/06/23 08:59:25;;;;;;;10.07;6.25;;;;;;;23.26;64.56;101033.97;4910709;29;20253;-69
2023/06/23 09:01:52;;;;;;;9.55;6.65;;;;;;;23.23;65.75;101004.31;4929071;29;20214;-67
2023/06/23 09:04:19;;;;;;;7.95;6.75;;;;;;;23.64;65.59;101026.56;4931714;29;20211;-69
2023/06/23 09:06:46;;;;;;;11.38;7.90;;;;;;;23.52;64.86;101010.66;4924289;29;20206;-70
2023/06/23 09:09:12;;;;;;;8.27;6.93;;;;;;;23.54;64.74;101017.78;4929579;29;20262;-66
2023/06/23 09:11:41;;;;;;;9.60;7.40;;;;;;;23.95;64.92;101019.25;4931963;29;20257;-70
2023/06/23 09:14:09;;;;;;;8.52;7.63;;;;;;;24.21;64.56;101021.13;4923399;29;20665;-70
2023/06/23 09:16:38;;;;;;;9.23;7.00;;;;;;;23.82;64.27;101026.00;4931750;29;20282;-69
2023/06/23 09:19:07;;;;;;;10.05;6.60;;;;;;;23.44;64.02;101037.94;4931923;29;20223;-67
2023/06/23 09:21:37;;;;;;;9.38;7.25;;;;;;;23.31;63.78;101048.22;4931599;29;20222;-67
2023/06/23 09:24:07;;;;;;;7.85;6.57;;;;;;;23.23;64.75;101044.84;4923874;29;20289;-69
2023/06/23 09:26:43;;;;;;;9.15;6.95;;;;;;;23.07;64.89;101047.09;4915243;29;20211;-69
2023/06/23 09:29:18;;;;;;;8.50;7.22;;;;;;;23.11;65.38;101037.97;4917870;29;20227;-70
2023/06/23 09:31:48;;;;;;;10.30;7.18;;;;;;;23.40;64.35;101034.44;4931522;29;20257;-68
2023/06/23 09:34:29;;;;;;;7.93;6.80;;;;;;;23.82;65.03;101036.81;4931220;29;20250;-70
2023/06/23 09:37:13;;;;;;;10.13;7.00;;;;;;;23.42;65.14;101032.56;4927588;29;20254;-69
2023/06/23 09:39:41;;;;;;;8.80;7.78;;;;;;;23.59;65.44;101039.31;4929628;29;20250;-69
2023/06/23 09:42:14;;;;;;;9.07;7.32;;;;;;;23.44;64.85;101046.94;4931198;29;20219;-69
2023/06/23 09:44:45;;;;;;;9.73;7.70;;;;;;;23.55;65.56;101046.66;4917305;29;20594;-69
2023/06/23 09:47:14;;;;;;;8.57;6.53;;;;;;;23.70;63.74;101045.31;4933177;29;20247;-68
2023/06/23 09:49:42;;;;;;;7.30;6.60;;;;;;;24.15;62.49;101058.34;4934540;29;20219;-69
2023/06/23 09:52:13;;;;;;;8.65;6.25;;;;;;;24.01;60.11;101050.66;4934703;29;20597;-67
2023/06/23 09:54:41;;;;;;;8.00;6.25;;;;;;;23.92;59.22;101059.06;4933928;29;20203;-67
2023/06/23 09:57:15;;;;;;;9.13;6.60;;;;;;;24.15;59.70;101047.53;4936295;29;20206;-68
2023/06/23 09:59:44;;;;;;;6.97;6.05;;;;;;;24.45;58.45;101053.81;4935090;29;20253;-69
2023/06/23 10:02:29;;;;;;;8.95;6.60;;;;;;;23.68;61.38;101060.72;4934442;29;20557;-68
2023/06/23 10:05:03;;;;;;;8.20;6.75;;;;;;;23.47;62.59;101070.28;4926833;29;20282;-71
2023/06/23 10:07:30;;;;;;;8.07;6.15;;;;;;;23.46;63.60;101071.22;4934820;29;20206;-70
2023/06/23 10:10:04;;;;;;;11.55;6.35;;;;;;;23.66;60.71;101063.47;4934499;29;20265;-70
2023/06/23 10:12:48;;;;;;;11.20;6.28;;;;;;;23.95;59.43;101057.13;4933092;29;20671;-67
2023/06/23 10:15:15;;;;;;;7.05;6.13;;;;;;;24.37;55.93;101054.91;4934200;29;20209;-69
2023/06/23 10:17:42;;;;;;;7.60;6.07;;;;;;;24.54;57.23;101064.31;4934370;29;20215;-68
2023/06/23 10:20:08;;;;;;;6.85;6.10;;;;;;;24.50;55.81;101062.66;4934462;29;20223;-69
2023/06/23 10:22:36;;;;;;;6.75;5.47;;;;;;;24.54;54.61;101075.16;4925429;29;20227;-67
2023/06/23 10:25:07;;;;;;;8.68;5.70;;;;;;;24.58;54.81;101068.69;4934525;29;20754;-65
2023/06/23 10:27:35;;;;;;;6.75;5.70;;;;;;;24.83;54.50;101072.34;4934071;29;20202;-66
2023/06/23 10:30:03;;;;;;;9.95;6.00;;;;;;;24.72;55.84;101062.81;4934262;29;20215;-67
2023/06/23 10:32:33;;;;;;;8.50;5.80;;;;;;;24.55;56.67;101077.81;4928588;29;20242;-68
2023/06/23 10:35:06;;;;;;;7.82;5.25;;;;;;;24.48;55.37;101081.66;4929050;29;20238;-65
2023/06/23 10:37:33;;;;;;;7.55;5.20;;;;;;;24.49;55.27;101078.03;4934274;29;20199;-69
2023/06/23 10:40:11;;;;;;;9.32;4.95;;;;;;;24.30;54.21;101084.94;4932732;29;20279;-69
2023/06/23 10:42:39;;;;;;;5.55;4.82;;;;;;;24.69;54.62;101082.75;4927099;29;20270;-70
2023/06/23 10:45:08;;;;;;;6.55;5.05;;;;;;;25.33;52.92;101072.41;4917208;29;20207;-70
2023/06/23 10:47:34;;;;;;;7.30;5.32;;;;;;;25.89;52.31;101088.41;4934236;29;20199;-69
2023/06/23 10:50:02;;;;;;;6.20;5.60;;;;;;;25.84;51.45;101085.88;4929142;29;20220;-70
2023/06/23 10:52:28;;;;;;;6.20;5.28;;;;;;;25.00;54.51;101104.31;4931481;29;20639;-70
2023/06/23 10:54:55;;;;;;;8.70;5.32;;;;;;;24.62;54.75;101117.28;4931102;29;20247;-71
2023/06/23 10:57:23;;;;;;;7.22;5.22;;;;;;;25.02;54.21;101113.28;4933735;29;20231;-70
2023/06/23 11:00:03;;;;;;;8.00;4.97;;;;;;;25.03;51.18;101103.31;4929912;29;20229;-71
2023/06/23 11:02:29;;;;;;;7.40;5.05;;;;;;;25.08;52.51;101114.88;4916480;29;20238;-70
2023/06/23 11:05:03;;;;;;;8.90;5.50;;;;;;;24.80;54.09;101104.06;4936927;29;20199;-71
2023/06/23 11:07:29;;;;;;;8.40;5.30;;;;;;;24.94;54.68;101107.19;4928695;29;20277;-69
2023/06/23 11:10:01;;;;;;;6.45;5.10;;;;;;;24.97;52.42;101104.38;4933205;29;20306;-71
2023/06/23 11:12:28;;;;;;;6.10;4.78;;;;;;;25.48;51.69;101107.09;4932958;29;20254;-70
2023/06/23 11:15:23;;;;;;;5.78;5.00;;;;;;;25.44;51.73;101118.13;4932804;29;20628;-70
2023/06/23 11:18:11;;;;;;;8.45;5.20;;;;;;;25.75;50.31;101107.94;4932320;29;20206;-71
2023/06/23 11:20:43;;;;;;;6.85;5.28;;;;;;;25.21;52.44;101105.38;4933183;29;20229;-70
2023/06/23 11:23:12;;;;;;;10.15;5.88;;;;;;;25.12;53.75;101113.84;4930235;29;20727;-70
2023/06/23 11:25:47;;;;;;;9.32;6.25;;;;;;;24.94;53.56;101118.94;4916240;29;20203;-68
2023/06/23 11:28:33;;;;;;;10.38;5.63;;;;;;;24.81;52.35;101114.84;4933358;29;20207;-68
2023/06/23 11:31:13;;;;;;;5.10;4.60;;;;;;;24.70;51.47;101122.47;4933523;29;20205;-70
2023/06/23 11:33:44;;;;;;;6.75;5.22;;;;;;;25.07;51.32;101122.13;4932067;29;20225;-70